Time;durP1;ratioP1;P1;durP2;ratioP2;P2;SDS_P1;SDS_P2;PMS_P1;PMS_P2;Temp;Humidity;BMP_temperature;BMP_pressure;BME280_temperature;BME280_humidity;BME280_pressure;Samples;Min_cycle;Max_cycle;Signal;HPM_P1;HPM_P2
2023/08/25 00:01:15;;;;;;;;;;;;;;;;;;5067410;28;19928;-64
2023/08/25 00:03:41;;;;;;;;;;;;;;;;;;5067669;28;20420;-64
2023/08/25 00:06:07;;;;;;;;;;;;;;;;;;5069178;28;19924;-64
2023/08/25 00:08:33;;;;;;;;;;;;;;;;;;5056299;28;19929;-64
2023/08/25 00:10:59;;;;;;;;;;;;;;;;;;5064399;28;20015;-64
2023/08/25 00:13:25;;;;;;;;;;;;;;;;;;5049581;28;19921;-64
2023/08/25 00:15:51;;;;;;;;;;;;;;;;;;5064437;28;19921;-64
2023/08/25 00:18:17;;;;;;;;;;;;;;;;;;5067233;28;19928;-64
2023/08/25 00:20:43;;;;;;;;;;;;;;;;;;5062868;28;20346;-64
2023/08/25 00:23:09;;;;;;;;;;;;;;;;;;5070017;28;19924;-64
2023/08/25 00:25:35;;;;;;;;;;;;;;;;;;5068829;28;20328;-64
2023/08/25 00:28:00;;;;;;;;;;;;;;;;;;5066216;28;19921;-64
2023/08/25 00:30:26;;;;;;;;;;;;;;;;;;5046630;28;19968;-65
2023/08/25 00:32:52;;;;;;;;;;;;;;;;;;5066173;28;19927;-62
2023/08/25 00:35:18;;;;;;;;;;;;;;;;;;5060885;28;20011;-63
2023/08/25 00:37:44;;;;;;;;;;;;;;;;;;5064372;28;19921;-63
2023/08/25 00:40:10;;;;;;;;;;;;;;;;;;5068042;28;20423;-63
2023/08/25 00:42:36;;;;;;;;;;;;;;;;;;5068998;28;19986;-63
2023/08/25 00:45:02;;;;;;;;;;;;;;;;;;5073182;28;20290;-63
2023/08/25 00:47:28;;;;;;;;;;;;;;;;;;5073439;28;19925;-63
2023/08/25 00:49:54;;;;;;;;;;;;;;;;;;5073014;28;19964;-63
2023/08/25 00:52:19;;;;;;;;;;;;;;;;;;5071794;28;19973;-63
2023/08/25 00:54:45;;;;;;;;;;;;;;;;;;5072956;28;19920;-63
2023/08/25 00:57:11;;;;;;;;;;;;;;;;;;5073433;28;19921;-63
2023/08/25 00:59:37;;;;;;;;;;;;;;;;;;5074080;28;19924;-63
2023/08/25 01:02:03;;;;;;;;;;;;;;;;;;5072275;28;19927;-63
2023/08/25 01:04:31;;;;;;;;;;;;;;;;;;5070798;28;20263;-63
2023/08/25 01:06:57;;;;;;;;;;;;;;;;;;5073716;28;19921;-63
2023/08/25 01:09:23;;;;;;;;;;;;;;;;;;5072684;28;20492;-62
2023/08/25 01:11:49;;;;;;;;;;;;;;;;;;5073021;28;19928;-63
2023/08/25 01:14:15;;;;;;;;;;;;;;;;;;5073213;28;19977;-63
2023/08/25 01:16:41;;;;;;;;;;;;;;;;;;5054666;28;19927;-63
2023/08/25 01:19:06;;;;;;;;;;;;;;;;;;5054653;28;20332;-63
2023/08/25 01:21:32;;;;;;;;;;;;;;;;;;5054803;28;19940;-62
2023/08/25 01:23:58;;;;;;;;;;;;;;;;;;5071750;28;20244;-62
2023/08/25 01:26:24;;;;;;;;;;;;;;;;;;5071276;28;19924;-62
2023/08/25 01:28:51;;;;;;;;;;;;;;;;;;5070339;28;19921;-63
2023/08/25 01:31:19;;;;;;;;;;;;;;;;;;5071696;28;20367;-63
2023/08/25 01:33:45;;;;;;;;;;;;;;;;;;5070538;28;20346;-63
2023/08/25 01:36:12;;;;;;;;;;;;;;;;;;5052642;28;20346;-62
2023/08/25 01:38:38;;;;;;;;;;;;;;;;;;5072408;28;19970;-62
2023/08/25 01:41:04;;;;;;;;;;;;;;;;;;5069142;28;19948;-62
2023/08/25 01:43:30;;;;;;;;;;;;;;;;;;5070842;28;19951;-62
2023/08/25 01:45:56;;;;;;;;;;;;;;;;;;5052077;28;19924;-62
2023/08/25 01:48:22;;;;;;;;;;;;;;;;;;5071816;28;19920;-62
2023/08/25 01:50:48;;;;;;;;;;;;;;;;;;5070485;28;19942;-62
2023/08/25 01:53:14;;;;;;;;;;;;;;;;;;5069955;28;19932;-62
2023/08/25 01:55:39;;;;;;;;;;;;;;;;;;5069597;28;20362;-62
2023/08/25 01:58:05;;;;;;;;;;;;;;;;;;5068615;28;19924;-62
2023/08/25 02:00:31;;;;;;;;;;;;;;;;;;5070844;28;20564;-62
2023/08/25 02:02:57;;;;;;;;;;;;;;;;;;5070584;28;19932;-62
2023/08/25 02:05:23;;;;;;;;;;;;;;;;;;5070725;28;19924;-62
2023/08/25 02:07:49;;;;;;;;;;;;;;;;;;5072313;28;19924;-62
2023/08/25 02:10:15;;;;;;;;;;;;;;;;;;5072797;28;20085;-62
2023/08/25 02:12:41;;;;;;;;;;;;;;;;;;5072506;28;19999;-62
2023/08/25 02:15:07;;;;;;;;;;;;;;;;;;5072363;28;20706;-62
2023/08/25 02:17:32;;;;;;;;;;;;;;;;;;5072172;28;19924;-62
2023/08/25 02:19:58;;;;;;;;;;;;;;;;;;5072021;28;20281;-62
2023/08/25 02:22:24;;;;;;;;;;;;;;;;;;5058301;28;20530;-62
2023/08/25 02:24:50;;;;;;;;;;;;;;;;;;5071246;28;19929;-62
2023/08/25 02:27:16;;;;;;;;;;;;;;;;;;5068020;28;19924;-62
2023/08/25 02:29:42;;;;;;;;;;;;;;;;;;5060990;28;20416;-62
2023/08/25 02:32:08;;;;;;;;;;;;;;;;;;5047224;28;19991;-63
2023/08/25 02:34:34;;;;;;;;;;;;;;;;;;5053682;28;19932;-63
2023/08/25 02:37:00;;;;;;;;;;;;;;;;;;5067210;28;20339;-63
2023/08/25 02:39:26;;;;;;;;;;;;;;;;;;5069972;28;20020;-63
2023/08/25 02:41:52;;;;;;;;;;;;;;;;;;5053231;28;20006;-63
2023/08/25 02:44:18;;;;;;;;;;;;;;;;;;5068890;28;20416;-63
2023/08/25 02:46:44;;;;;;;;;;;;;;;;;;5070644;28;19969;-63
2023/08/25 02:49:10;;;;;;;;;;;;;;;;;;5068583;28;19943;-63
2023/08/25 02:51:36;;;;;;;;;;;;;;;;;;5068577;28;19920;-63
2023/08/25 02:54:02;;;;;;;;;;;;;;;;;;5038524;22;20530;-62
2023/08/25 02:56:28;;;;;;;;;;;;;;;;;;5029609;28;19952;-62
2023/08/25 02:58:54;;;;;;;;;;;;;;;;;;5029310;28;19967;-62
2023/08/25 03:01:20;;;;;;;;;;;;;;;;;;5030646;28;20350;-62
2023/08/25 03:03:47;;;;;;;;;;;;;;;;;;5025273;28;19928;-62
2023/08/25 03:06:13;;;;;;;;;;;;;;;;;;5030637;28;20032;-62
2023/08/25 03:08:39;;;;;;;;;;;;;;;;;;5032461;28;20020;-62
2023/08/25 03:11:05;;;;;;;;;;;;;;;;;;5028063;28;21465;-62
2023/08/25 03:13:31;;;;;;;;;;;;;;;;;;5016126;28;19927;-63
2023/08/25 03:15:59;;;;;;;;;;;;;;;;;;5030168;28;19925;-63
2023/08/25 03:18:25;;;;;;;;;;;;;;;;;;5029482;28;19925;-63
2023/08/25 03:20:54;;;;;;;;;;;;;;;;;;5029482;28;19925;-63
2023/08/25 03:23:20;;;;;;;;;;;;;;;;;;5025048;28;20309;-63
2023/08/25 03:25:46;;;;;;;;;;;;;;;;;;5028529;28;19933;-63
2023/08/25 03:28:12;;;;;;;;;;;;;;;;;;5025850;28;19929;-63
2023/08/25 03:30:38;;;;;;;;;;;;;;;;;;5024477;28;19921;-62
2023/08/25 03:33:04;;;;;;;;;;;;;;;;;;5029986;28;20012;-63
2023/08/25 03:35:30;;;;;;;;;;;;;;;;;;5027946;28;19960;-63
2023/08/25 03:37:56;;;;;;;;;;;;;;;;;;5024093;28;19971;-63
2023/08/25 03:40:22;;;;;;;;;;;;;;;;;;5030762;28;19921;-63
2023/08/25 03:42:48;;;;;;;;;;;;;;;;;;5028049;28;19929;-63
2023/08/25 03:45:14;;;;;;;;;;;;;;;;;;5028786;28;19956;-63
2023/08/25 03:47:40;;;;;;;;;;;;;;;;;;5030672;28;19928;-62
2023/08/25 03:50:06;;;;;;;;;;;;;;;;;;5028807;28;19921;-62
2023/08/25 03:52:32;;;;;;;;;;;;;;;;;;5022860;28;20385;-62
2023/08/25 03:54:58;;;;;;;;;;;;;;;;;;5048390;28;19933;-62
2023/08/25 03:57:24;;;;;;;;;;;;;;;;;;5045353;28;19921;-62
2023/08/25 03:59:50;;;;;;;;;;;;;;;;;;5049885;28;20378;-63
2023/08/25 04:02:16;;;;;;;;;;;;;;;;;;5046688;28;19920;-63
2023/08/25 04:04:41;;;;;;;;;;;;;;;;;;5032448;28;20494;-62
2023/08/25 04:07:07;;;;;;;;;;;;;;;;;;5050142;28;19927;-62
2023/08/25 04:09:33;;;;;;;;;;;;;;;;;;5048423;28;19936;-62
2023/08/25 04:11:59;;;;;;;;;;;;;;;;;;5048985;28;19921;-62
2023/08/25 04:14:25;;;;;;;;;;;;;;;;;;5048717;28;19924;-62
2023/08/25 04:16:51;;;;;;;;;;;;;;;;;;5029997;28;19921;-62
2023/08/25 04:19:18;;;;;;;;;;;;;;;;;;5049443;28;19920;-62
2023/08/25 04:21:43;;;;;;;;;;;;;;;;;;5048264;28;20461;-62
2023/08/25 04:24:09;;;;;;;;;;;;;;;;;;5036779;28;19983;-62
2023/08/25 04:26:35;;;;;;;;;;;;;;;;;;5045021;28;19928;-63
2023/08/25 04:29:01;;;;;;;;;;;;;;;;;;5052436;28;19921;-63
2023/08/25 04:31:27;;;;;;;;;;;;;;;;;;5053743;28;20325;-63
2023/08/25 04:33:53;;;;;;;;;;;;;;;;;;5054776;28;19928;-63
2023/08/25 04:36:19;;;;;;;;;;;;;;;;;;5054430;28;19986;-63
2023/08/25 04:38:45;;;;;;;;;;;;;;;;;;5054699;28;20004;-63
2023/08/25 04:41:11;;;;;;;;;;;;;;;;;;5054781;28;19972;-63
2023/08/25 04:43:37;;;;;;;;;;;;;;;;;;5050681;28;19924;-63
2023/08/25 04:46:03;;;;;;;;;;;;;;;;;;5049819;28;19925;-63
2023/08/25 04:48:28;;;;;;;;;;;;;;;;;;5017406;28;19925;-63
2023/08/25 04:50:56;;;;;;;;;;;;;;;;;;5017976;28;19925;-63
2023/08/25 04:53:22;;;;;;;;;;;;;;;;;;5053529;28;19967;-63
2023/08/25 04:55:48;;;;;;;;;;;;;;;;;;5036293;28;20322;-63
2023/08/25 04:58:14;;;;;;;;;;;;;;;;;;5036324;28;19976;-63
2023/08/25 05:00:40;;;;;;;;;;;;;;;;;;5019242;28;19998;-63
2023/08/25 05:03:06;;;;;;;;;;;;;;;;;;5054510;28;19961;-63
2023/08/25 05:05:32;;;;;;;;;;;;;;;;;;5053807;28;19928;-63
2023/08/25 05:07:58;;;;;;;;;;;;;;;;;;5036059;28;19971;-63
2023/08/25 05:10:23;;;;;;;;;;;;;;;;;;5053731;28;20034;-63
2023/08/25 05:12:49;;;;;;;;;;;;;;;;;;5054271;28;19990;-63
2023/08/25 05:15:15;;;;;;;;;;;;;;;;;;5054381;28;20015;-63
2023/08/25 05:17:41;;;;;;;;;;;;;;;;;;5035180;28;19929;-63
2023/08/25 05:20:07;;;;;;;;;;;;;;;;;;5053827;28;19920;-63
2023/08/25 05:22:33;;;;;;;;;;;;;;;;;;5043457;28;19921;-63
2023/08/25 05:24:59;;;;;;;;;;;;;;;;;;5035662;28;20319;-62
2023/08/25 05:27:25;;;;;;;;;;;;;;;;;;5064412;28;19921;-62
2023/08/25 05:29:51;;;;;;;;;;;;;;;;;;5053568;28;20001;-62
2023/08/25 05:32:16;;;;;;;;;;;;;;;;;;5054041;28;19932;-62
2023/08/25 05:34:42;;;;;;;;;;;;;;;;;;5050669;28;19925;-62
2023/08/25 05:37:08;;;;;;;;;;;;;;;;;;5036548;28;20271;-62
2023/08/25 05:39:34;;;;;;;;;;;;;;;;;;5016623;28;19974;-62
2023/08/25 05:42:00;;;;;;;;;;;;;;;;;;5052499;28;19920;-62
2023/08/25 05:44:26;;;;;;;;;;;;;;;;;;5048464;28;19929;-63
2023/08/25 05:46:52;;;;;;;;;;;;;;;;;;5039719;28;20030;-63
2023/08/25 05:49:18;;;;;;;;;;;;;;;;;;5032622;28;20374;-63
2023/08/25 05:51:44;;;;;;;;;;;;;;;;;;5048101;28;19974;-63
2023/08/25 05:54:10;;;;;;;;;;;;;;;;;;5051239;28;19924;-63
2023/08/25 05:56:36;;;;;;;;;;;;;;;;;;5051353;28;20011;-64
2023/08/25 05:59:01;;;;;;;;;;;;;;;;;;5052369;28;20550;-63
2023/08/25 06:01:28;;;;;;;;;;;;;;;;;;5050110;28;19924;-63
2023/08/25 06:03:54;;;;;;;;;;;;;;;;;;5052889;28;20267;-63
2023/08/25 06:06:19;;;;;;;;;;;;;;;;;;5051478;28;19940;-69
2023/08/25 06:08:45;;;;;;;;;;;;;;;;;;5045390;28;20394;-65
2023/08/25 06:11:12;;;;;;;;;;;;;;;;;;5050445;28;19932;-63
2023/08/25 06:13:37;;;;;;;;;;;;;;;;;;5048199;28;19924;-63
2023/08/25 06:16:04;;;;;;;;;;;;;;;;;;5032320;28;19928;-63
2023/08/25 06:18:29;;;;;;;;;;;;;;;;;;5050053;28;20395;-63
2023/08/25 06:20:55;;;;;;;;;;;;;;;;;;5013722;28;20054;-62
2023/08/25 06:23:21;;;;;;;;;;;;;;;;;;5050841;28;19921;-62
2023/08/25 06:25:48;;;;;;;;;;;;;;;;;;5052059;28;20447;-62
2023/08/25 06:28:14;;;;;;;;;;;;;;;;;;5046174;28;19936;-63
2023/08/25 06:30:41;;;;;;;;;;;;;;;;;;5048945;28;20553;-64
2023/08/25 06:33:07;;;;;;;;;;;;;;;;;;5051055;28;20016;-63
2023/08/25 06:35:33;;;;;;;;;;;;;;;;;;5032202;28;20427;-63
2023/08/25 06:37:59;;;;;;;;;;;;;;;;;;5049253;28;19925;-63
2023/08/25 06:40:25;;;;;;;;;;;;;;;;;;5051205;28;19927;-62
2023/08/25 06:42:51;;;;;;;;;;;;;;;;;;5047037;28;19947;-63
2023/08/25 06:45:17;;;;;;;;;;;;;;;;;;5050020;28;20350;-63
2023/08/25 06:47:45;;;;;;;;;;;;;;;;;;5051479;28;19927;-63
2023/08/25 06:50:11;;;;;;;;;;;;;;;;;;5051830;28;19920;-63
2023/08/25 06:52:37;;;;;;;;;;;;;;;;;;5048528;28;20326;-63
2023/08/25 06:55:04;;;;;;;;;;;;;;;;;;5048873;28;19932;-63
2023/08/25 06:57:31;;;;;;;;;;;;;;;;;;5039379;28;19927;-63
2023/08/25 06:59:57;;;;;;;;;;;;;;;;;;5052520;28;19951;-63
2023/08/25 07:02:23;;;;;;;;;;;;;;;;;;5049532;28;20327;-63
2023/08/25 07:04:49;;;;;;;;;;;;;;;;;;5029176;28;19940;-63
2023/08/25 07:07:15;;;;;;;;;;;;;;;;;;5044728;28;19927;-63
2023/08/25 07:09:41;;;;;;;;;;;;;;;;;;5037053;28;19960;-63
2023/08/25 07:12:07;;;;;;;;;;;;;;;;;;5031678;28;20271;-63
2023/08/25 07:14:33;;;;;;;;;;;;;;;;;;5050092;28;19928;-63
2023/08/25 07:16:59;;;;;;;;;;;;;;;;;;5049624;28;19925;-63
2023/08/25 07:19:25;;;;;;;;;;;;;;;;;;5051458;28;19929;-63
2023/08/25 07:21:51;;;;;;;;;;;;;;;;;;5033342;28;19921;-63
2023/08/25 07:24:17;;;;;;;;;;;;;;;;;;5037723;28;20370;-63
2023/08/25 07:26:43;;;;;;;;;;;;;;;;;;5029683;28;19932;-63
2023/08/25 07:29:09;;;;;;;;;;;;;;;;;;5051203;28;19921;-63
2023/08/25 07:31:35;;;;;;;;;;;;;;;;;;5048173;28;19929;-63
2023/08/25 07:34:01;;;;;;;;;;;;;;;;;;5028762;28;19928;-63
2023/08/25 07:36:27;;;;;;;;;;;;;;;;;;5044893;28;19920;-63
2023/08/25 07:38:54;;;;;;;;;;;;;;;;;;5039517;28;19924;-63
2023/08/25 07:41:21;;;;;;;;;;;;;;;;;;5046625;28;20046;-63
2023/08/25 07:43:48;;;;;;;;;;;;;;;;;;5046729;28;19928;-63
2023/08/25 07:46:14;;;;;;;;;;;;;;;;;;5043628;28;20301;-64
2023/08/25 07:48:40;;;;;;;;;;;;;;;;;;5045225;28;19931;-63
2023/08/25 07:51:06;;;;;;;;;;;;;;;;;;5044034;28;19921;-63
2023/08/25 07:53:32;;;;;;;;;;;;;;;;;;5042915;28;20294;-63
2023/08/25 07:55:58;;;;;;;;;;;;;;;;;;5023830;28;19925;-63
2023/08/25 07:58:24;;;;;;;;;;;;;;;;;;5047983;28;20336;-63
2023/08/25 08:00:50;;;;;;;;;;;;;;;;;;5052879;28;19921;-64
2023/08/25 08:03:15;;;;;;;;;;;;;;;;;;5055452;28;20346;-64
2023/08/25 08:05:42;;;;;;;;;;;;;;;;;;5055521;28;19936;-63
2023/08/25 08:08:09;;;;;;;;;;;;;;;;;;5055410;28;20425;-64
2023/08/25 08:10:35;;;;;;;;;;;;;;;;;;5055909;28;19993;-63
2023/08/25 08:13:02;;;;;;;;;;;;;;;;;;5032018;28;20430;-63
2023/08/25 08:15:27;;;;;;;;;;;;;;;;;;5047412;28;20310;-63
2023/08/25 08:17:53;;;;;;;;;;;;;;;;;;5050881;28;19928;-63
2023/08/25 08:20:19;;;;;;;;;;;;;;;;;;5052134;28;19927;-63
2023/08/25 08:22:45;;;;;;;;;;;;;;;;;;5049046;28;19927;-63
2023/08/25 08:25:11;;;;;;;;;;;;;;;;;;5051441;28;20278;-64
2023/08/25 08:27:37;;;;;;;;;;;;;;;;;;5053495;28;19927;-64
2023/08/25 08:30:03;;;;;;;;;;;;;;;;;;5055544;28;19924;-65
2023/08/25 08:32:29;;;;;;;;;;;;;;;;;;5055134;28;20420;-64
2023/08/25 08:34:55;;;;;;;;;;;;;;;;;;5055337;28;19920;-64
2023/08/25 08:37:21;;;;;;;;;;;;;;;;;;5055162;28;19943;-64
2023/08/25 08:39:47;;;;;;;;;;;;;;;;;;5054905;28;19925;-64
2023/08/25 08:42:13;;;;;;;;;;;;;;;;;;5055084;28;19928;-64
2023/08/25 08:44:39;;;;;;;;;;;;;;;;;;5037271;28;19968;-64
2023/08/25 08:47:05;;;;;;;;;;;;;;;;;;5054876;28;20397;-64
2023/08/25 08:49:31;;;;;;;;;;;;;;;;;;5055041;28;19921;-64
2023/08/25 08:51:58;;;;;;;;;;;;;;;;;;5055021;28;19927;-64
2023/08/25 08:54:24;;;;;;;;;;;;;;;;;;5054566;28;20334;-64
2023/08/25 08:56:49;;;;;;;;;;;;;;;;;;5054818;28;19968;-64
2023/08/25 08:59:15;;;;;;;;;;;;;;;;;;5054794;28;19927;-64
2023/08/25 09:01:41;;;;;;;;;;;;;;;;;;5054648;28;19925;-64
2023/08/25 09:04:07;;;;;;;;;;;;;;;;;;5054360;28;19932;-64
2023/08/25 09:06:35;;;;;;;;;;;;;;;;;;5054133;28;19964;-64
2023/08/25 09:09:04;;;;;;;;;;;;;;;;;;5036558;28;19954;-64
2023/08/25 09:11:30;;;;;;;;;;;;;;;;;;5054519;28;19967;-64
2023/08/25 09:13:57;;;;;;;;;;;;;;;;;;5036761;28;20385;-64
2023/08/25 09:16:23;;;;;;;;;;;;;;;;;;5054496;28;20056;-64
2023/08/25 09:18:49;;;;;;;;;;;;;;;;;;5054257;28;20388;-64
2023/08/25 09:21:15;;;;;;;;;;;;;;;;;;5054426;28;19925;-65
2023/08/25 09:23:41;;;;;;;;;;;;;;;;;;5054038;28;20570;-64
2023/08/25 09:26:07;;;;;;;;;;;;;;;;;;5054389;28;19925;-64
2023/08/25 09:28:33;;;;;;;;;;;;;;;;;;5054237;28;19928;-64
2023/08/25 09:30:59;;;;;;;;;;;;;;;;;;5019666;28;20382;-65
2023/08/25 09:33:25;;;;;;;;;;;;;;;;;;5054217;28;19970;-64
2023/08/25 09:35:50;;;;;;;;;;;;;;;;;;5035973;28;20329;-64
2023/08/25 09:38:16;;;;;;;;;;;;;;;;;;5035926;28;19921;-64
2023/08/25 09:40:42;;;;;;;;;;;;;;;;;;5053961;28;19931;-64
2023/08/25 09:43:08;;;;;;;;;;;;;;;;;;5053963;28;19928;-64
2023/08/25 09:45:36;;;;;;;;;;;;;;;;;;5054004;28;19929;-64
2023/08/25 09:48:02;;;;;;;;;;;;;;;;;;5054058;28;19920;-64
2023/08/25 09:50:28;;;;;;;;;;;;;;;;;;5053872;28;19952;-64
2023/08/25 09:52:54;;;;;;;;;;;;;;;;;;5053650;28;20294;-64
2023/08/25 09:55:20;;;;;;;;;;;;;;;;;;5053858;28;19925;-64
2023/08/25 09:57:48;;;;;;;;;;;;;;;;;;5053693;28;19947;-64
2023/08/25 10:00:14;;;;;;;;;;;;;;;;;;5019156;28;19928;-64
2023/08/25 10:02:40;;;;;;;;;;;;;;;;;;5053297;28;19921;-64
2023/08/25 10:05:06;;;;;;;;;;;;;;;;;;5053646;28;19939;-64
2023/08/25 10:07:32;;;;;;;;;;;;;;;;;;5053516;28;19972;-64
2023/08/25 10:09:57;;;;;;;;;;;;;;;;;;5053587;28;19920;-64
2023/08/25 10:12:23;;;;;;;;;;;;;;;;;;5053295;28;20275;-64
2023/08/25 10:14:52;;;;;;;;;;;;;;;;;;5053439;28;19925;-64
2023/08/25 10:17:18;;;;;;;;;;;;;;;;;;5052419;28;20318;-65
2023/08/25 10:19:44;;;;;;;;;;;;;;;;;;5035176;28;20003;-64
2023/08/25 10:22:10;;;;;;;;;;;;;;;;;;5053334;28;19921;-64
2023/08/25 10:24:36;;;;;;;;;;;;;;;;;;5053067;28;20270;-64
2023/08/25 10:27:02;;;;;;;;;;;;;;;;;;5053150;28;19928;-64
2023/08/25 10:29:28;;;;;;;;;;;;;;;;;;5052965;28;19920;-64
2023/08/25 10:31:53;;;;;;;;;;;;;;;;;;5053058;28;19920;-64
2023/08/25 10:34:19;;;;;;;;;;;;;;;;;;5052920;28;20377;-64
2023/08/25 10:36:45;;;;;;;;;;;;;;;;;;5053030;28;19925;-64
2023/08/25 10:39:11;;;;;;;;;;;;;;;;;;5052879;28;20437;-65
2023/08/25 10:41:37;;;;;;;;;;;;;;;;;;5034832;28;20378;-64
2023/08/25 10:44:03;;;;;;;;;;;;;;;;;;5052563;28;20011;-64
2023/08/25 10:46:31;;;;;;;;;;;;;;;;;;5052945;28;19933;-64
2023/08/25 10:48:56;;;;;;;;;;;;;;;;;;5052423;28;19920;-64
2023/08/25 10:51:22;;;;;;;;;;;;;;;;;;5052495;28;20028;-64
2023/08/25 10:53:48;;;;;;;;;;;;;;;;;;5052346;28;19925;-64
2023/08/25 10:56:17;;;;;;;;;;;;;;;;;;5034810;28;19924;-64
2023/08/25 10:58:43;;;;;;;;;;;;;;;;;;5052409;28;19921;-64
2023/08/25 11:01:09;;;;;;;;;;;;;;;;;;5052589;28;19928;-64
2023/08/25 11:03:35;;;;;;;;;;;;;;;;;;5052130;28;19931;-64
2023/08/25 11:06:02;;;;;;;;;;;;;;;;;;5051870;28;20208;-64
2023/08/25 11:08:28;;;;;;;;;;;;;;;;;;5052219;28;19970;-64
2023/08/25 11:10:54;;;;;;;;;;;;;;;;;;5052499;28;20305;-64
2023/08/25 11:13:20;;;;;;;;;;;;;;;;;;5034419;28;20016;-64
2023/08/25 11:15:46;;;;;;;;;;;;;;;;;;5052287;28;19925;-64
2023/08/25 11:18:12;;;;;;;;;;;;;;;;;;5034168;28;19927;-64
2023/08/25 11:20:38;;;;;;;;;;;;;;;;;;5052203;28;20294;-64
2023/08/25 11:23:04;;;;;;;;;;;;;;;;;;5052153;28;19932;-64
2023/08/25 11:25:30;;;;;;;;;;;;;;;;;;5033930;28;19924;-64
2023/08/25 11:27:56;;;;;;;;;;;;;;;;;;5052113;28;19967;-64
2023/08/25 11:30:22;;;;;;;;;;;;;;;;;;5033966;28;19921;-64
2023/08/25 11:32:47;;;;;;;;;;;;;;;;;;5051838;28;19925;-64
2023/08/25 11:35:13;;;;;;;;;;;;;;;;;;5051659;28;19947;-64
2023/08/25 11:37:39;;;;;;;;;;;;;;;;;;5052087;28;19963;-64
2023/08/25 11:40:05;;;;;;;;;;;;;;;;;;5051915;28;20278;-64
2023/08/25 11:42:31;;;;;;;;;;;;;;;;;;5051726;28;19931;-65
2023/08/25 11:44:57;;;;;;;;;;;;;;;;;;5051812;28;19925;-65
2023/08/25 11:47:23;;;;;;;;;;;;;;;;;;5051846;28;20370;-64
2023/08/25 11:49:49;;;;;;;;;;;;;;;;;;5051904;28;19924;-64
2023/08/25 11:52:15;;;;;;;;;;;;;;;;;;5051700;28;19975;-64
2023/08/25 11:54:41;;;;;;;;;;;;;;;;;;5051864;28;19925;-65
2023/08/25 11:57:07;;;;;;;;;;;;;;;;;;5051755;28;19929;-64
2023/08/25 11:59:33;;;;;;;;;;;;;;;;;;5016945;28;19932;-64
2023/08/25 12:02:01;;;;;;;;;;;;;;;;;;5051531;28;20335;-64
2023/08/25 12:04:26;;;;;;;;;;;;;;;;;;5051586;28;19931;-64
2023/08/25 12:06:53;;;;;;;;;;;;;;;;;;5051807;28;20366;-64
2023/08/25 12:09:19;;;;;;;;;;;;;;;;;;5051602;28;19971;-64
2023/08/25 12:11:45;;;;;;;;;;;;;;;;;;5051697;28;20382;-64
2023/08/25 12:14:11;;;;;;;;;;;;;;;;;;5051316;28;19925;-64
2023/08/25 12:16:36;;;;;;;;;;;;;;;;;;5051399;28;19921;-64
2023/08/25 12:19:02;;;;;;;;;;;;;;;;;;5051598;28;19966;-64
2023/08/25 12:21:28;;;;;;;;;;;;;;;;;;5051435;28;19932;-64
2023/08/25 12:23:54;;;;;;;;;;;;;;;;;;5051409;28;19974;-64
2023/08/25 12:26:21;;;;;;;;;;;;;;;;;;5033465;28;19920;-64
2023/08/25 12:28:47;;;;;;;;;;;;;;;;;;5051330;28;20007;-64
2023/08/25 12:31:13;;;;;;;;;;;;;;;;;;5051436;28;20051;-64
2023/08/25 12:33:39;;;;;;;;;;;;;;;;;;5051574;28;19924;-64
2023/08/25 12:36:04;;;;;;;;;;;;;;;;;;5051359;28;19927;-64
2023/08/25 12:38:32;;;;;;;;;;;;;;;;;;5032984;28;20539;-64
2023/08/25 12:40:58;;;;;;;;;;;;;;;;;;5053027;28;19928;-64
2023/08/25 12:43:24;;;;;;;;;;;;;;;;;;5054144;28;20366;-64
2023/08/25 12:45:50;;;;;;;;;;;;;;;;;;5036658;28;19931;-64
2023/08/25 12:48:16;;;;;;;;;;;;;;;;;;5036055;28;19928;-64
2023/08/25 12:50:42;;;;;;;;;;;;;;;;;;5053938;28;20337;-64
2023/08/25 12:53:08;;;;;;;;;;;;;;;;;;5053581;28;19924;-64
2023/08/25 12:55:33;;;;;;;;;;;;;;;;;;5053795;28;19932;-64
2023/08/25 12:57:59;;;;;;;;;;;;;;;;;;5053699;28;19966;-64
2023/08/25 13:00:25;;;;;;;;;;;;;;;;;;5053735;28;19925;-64
2023/08/25 13:02:51;;;;;;;;;;;;;;;;;;5053592;28;19929;-64
2023/08/25 13:05:17;;;;;;;;;;;;;;;;;;5053786;28;19924;-64
2023/08/25 13:07:43;;;;;;;;;;;;;;;;;;5054357;28;19921;-64
2023/08/25 13:10:09;;;;;;;;;;;;;;;;;;5054406;28;19925;-63
2023/08/25 13:12:35;;;;;;;;;;;;;;;;;;5054314;28;20098;-63
2023/08/25 13:15:01;;;;;;;;;;;;;;;;;;5054589;28;19925;-64
2023/08/25 13:17:27;;;;;;;;;;;;;;;;;;5054551;28;19921;-63
2023/08/25 13:19:54;;;;;;;;;;;;;;;;;;5054445;28;19927;-63
2023/08/25 13:22:20;;;;;;;;;;;;;;;;;;5054244;28;19925;-64
2023/08/25 13:24:45;;;;;;;;;;;;;;;;;;5054347;28;19928;-63
2023/08/25 13:27:12;;;;;;;;;;;;;;;;;;5053975;28;20346;-63
2023/08/25 13:29:37;;;;;;;;;;;;;;;;;;5054048;28;20382;-63
2023/08/25 13:32:03;;;;;;;;;;;;;;;;;;5036156;28;19927;-63
2023/08/25 13:34:29;;;;;;;;;;;;;;;;;;5053957;28;19924;-64
2023/08/25 13:36:55;;;;;;;;;;;;;;;;;;5054011;28;19920;-63
2023/08/25 13:39:21;;;;;;;;;;;;;;;;;;5054181;28;19925;-63
2023/08/25 13:41:47;;;;;;;;;;;;;;;;;;5054076;28;19925;-63
2023/08/25 13:44:13;;;;;;;;;;;;;;;;;;5053942;28;20283;-63
2023/08/25 13:46:39;;;;;;;;;;;;;;;;;;5053965;28;20484;-63
2023/08/25 13:49:05;;;;;;;;;;;;;;;;;;5053881;28;19925;-64
2023/08/25 13:51:30;;;;;;;;;;;;;;;;;;5052306;28;19973;-64
2023/08/25 13:53:56;;;;;;;;;;;;;;;;;;5053558;28;19957;-63
2023/08/25 13:56:22;;;;;;;;;;;;;;;;;;5053427;28;19928;-63
2023/08/25 13:58:48;;;;;;;;;;;;;;;;;;5053882;28;20019;-63
2023/08/25 14:01:15;;;;;;;;;;;;;;;;;;5053824;28;19924;-63
2023/08/25 14:03:41;;;;;;;;;;;;;;;;;;5053307;28;19925;-63
2023/08/25 14:06:07;;;;;;;;;;;;;;;;;;5053734;28;19925;-63
2023/08/25 14:08:32;;;;;;;;;;;;;;;;;;5053517;28;20428;-63
2023/08/25 14:10:58;;;;;;;;;;;;;;;;;;5053596;28;19932;-64
2023/08/25 14:13:24;;;;;;;;;;;;;;;;;;5035623;28;19929;-63
2023/08/25 14:15:50;;;;;;;;;;;;;;;;;;5052982;28;20536;-63
2023/08/25 14:18:16;;;;;;;;;;;;;;;;;;5053288;28;19925;-63
2023/08/25 14:20:42;;;;;;;;;;;;;;;;;;5053119;28;19944;-63
2023/08/25 14:23:08;;;;;;;;;;;;;;;;;;5034768;28;19971;-64
2023/08/25 14:25:34;;;;;;;;;;;;;;;;;;5052970;28;19924;-63
2023/08/25 14:28:00;;;;;;;;;;;;;;;;;;5053126;28;19924;-63
2023/08/25 14:30:25;;;;;;;;;;;;;;;;;;5053230;28;20341;-63
2023/08/25 14:32:51;;;;;;;;;;;;;;;;;;5052992;28;19927;-63
2023/08/25 14:35:17;;;;;;;;;;;;;;;;;;5053005;28;20576;-64
2023/08/25 14:37:43;;;;;;;;;;;;;;;;;;5052716;28;19976;-63
2023/08/25 14:40:09;;;;;;;;;;;;;;;;;;5052802;28;19931;-64
2023/08/25 14:42:35;;;;;;;;;;;;;;;;;;5052763;28;19928;-63
2023/08/25 14:45:01;;;;;;;;;;;;;;;;;;5035106;28;19920;-64
2023/08/25 14:47:27;;;;;;;;;;;;;;;;;;5052822;28;20062;-63
2023/08/25 14:49:54;;;;;;;;;;;;;;;;;;5052659;28;20007;-63
2023/08/25 14:52:19;;;;;;;;;;;;;;;;;;5052413;28;19931;-63
2023/08/25 14:54:45;;;;;;;;;;;;;;;;;;5052783;28;19952;-64
2023/08/25 14:57:11;;;;;;;;;;;;;;;;;;5052771;28;19921;-64
2023/08/25 14:59:37;;;;;;;;;;;;;;;;;;5052466;28;19921;-63
2023/08/25 15:02:03;;;;;;;;;;;;;;;;;;5034727;28;19928;-64
2023/08/25 15:04:29;;;;;;;;;;;;;;;;;;5052080;28;20367;-63
2023/08/25 15:06:55;;;;;;;;;;;;;;;;;;5052311;28;19921;-63
2023/08/25 15:09:21;;;;;;;;;;;;;;;;;;5058194;22;19929;-60
2023/08/25 15:11:47;;;;;;;;;;;;;;;;;;5052312;28;19921;-59
2023/08/25 15:14:13;;;;;;;;;;;;;;;;;;5052495;28;20324;-60
2023/08/25 15:16:38;;;;;;;;;;;;;;;;;;5052230;28;20243;-60
2023/08/25 15:19:04;;;;;;;;;;;;;;;;;;5052035;28;19955;-60
2023/08/25 15:21:30;;;;;;;;;;;;;;;;;;5052069;28;19920;-60
2023/08/25 15:23:56;;;;;;;;;;;;;;;;;;5051777;28;19929;-60
2023/08/25 15:26:22;;;;;;;;;;;;;;;;;;5052113;28;19927;-60
2023/08/25 15:28:48;;;;;;;;;;;;;;;;;;5052072;28;19921;-60
2023/08/25 15:31:14;;;;;;;;;;;;;;;;;;5052072;28;19978;-60
2023/08/25 15:33:43;;;;;;;;;;;;;;;;;;5051876;28;19925;-60
2023/08/25 15:36:09;;;;;;;;;;;;;;;;;;5052028;28;19967;-60
2023/08/25 15:38:35;;;;;;;;;;;;;;;;;;5051847;28;19921;-60
2023/08/25 15:41:00;;;;;;;;;;;;;;;;;;5052027;28;20550;-60
2023/08/25 15:43:26;;;;;;;;;;;;;;;;;;5051785;28;20298;-60
2023/08/25 15:45:52;;;;;;;;;;;;;;;;;;5051928;28;20006;-60
2023/08/25 15:48:18;;;;;;;;;;;;;;;;;;5051625;28;19921;-60
2023/08/25 15:50:44;;;;;;;;;;;;;;;;;;5051756;28;19931;-60
2023/08/25 15:53:10;;;;;;;;;;;;;;;;;;5051937;28;19931;-60
2023/08/25 15:55:36;;;;;;;;;;;;;;;;;;5033758;28;20003;-60
2023/08/25 15:58:02;;;;;;;;;;;;;;;;;;5034034;28;19921;-60
2023/08/25 16:00:28;;;;;;;;;;;;;;;;;;5051590;28;20011;-60
2023/08/25 16:02:55;;;;;;;;;;;;;;;;;;5033873;28;19933;-60
2023/08/25 16:05:21;;;;;;;;;;;;;;;;;;5051343;28;19920;-60
2023/08/25 16:07:47;;;;;;;;;;;;;;;;;;5051572;28;20008;-60
2023/08/25 16:10:13;;;;;;;;;;;;;;;;;;5051649;28;20012;-60
2023/08/25 16:12:39;;;;;;;;;;;;;;;;;;5051680;28;19975;-60
2023/08/25 16:15:05;;;;;;;;;;;;;;;;;;5052997;28;19950;-60
2023/08/25 16:17:31;;;;;;;;;;;;;;;;;;5055737;28;19925;-60
2023/08/25 16:19:57;;;;;;;;;;;;;;;;;;5055589;28;19928;-60
2023/08/25 16:22:23;;;;;;;;;;;;;;;;;;5055619;28;19924;-60
2023/08/25 16:24:49;;;;;;;;;;;;;;;;;;5055395;28;19933;-60
2023/08/25 16:27:15;;;;;;;;;;;;;;;;;;5055396;28;19929;-60
2023/08/25 16:29:46;;;;;;;;;;;;;;;;;;5055312;28;19932;-60
2023/08/25 16:32:12;;;;;;;;;;;;;;;;;;5055276;28;20012;-60
2023/08/25 16:34:38;;;;;;;;;;;;;;;;;;5055327;28;20325;-60
2023/08/25 16:37:06;;;;;;;;;;;;;;;;;;5055504;28;20003;-60